Rybinsk, Russia
Current Conditions -  °F | °C
As of 1:00 PM on Thursday 23 Oct 2014 (Local Time) from UUDL Reporting Station
Overcast Overcast  
Wind Chill:   Ceiling: 2600
Heat Index: 19°   Visibility: 6mi
Dew Point: 10°   Wind: 9mph
Humidity: 68%   Direction: 300°WNW
Pressure: 30.21"   Gusts: NA
Location:  58.05°N, 38.83°E
Report Text: UUDL 231000Z 30004MPS 9999 OVC026 M07/M12 Q1023 NOSIG RMKQFE759 23850340
Loading
Personal Weather Stations






























Interactive Weather Map
Tropical Storm Tracking
New forecast layout! Learn more

10-Day Weather Forecast

Advertisements
Track Severe Weather on mobile